Monroe, NE (68647)

20:31 CDT le 25 mai 2015 (GMT -0500)
KNEMONRO3 | | Change Station
CLOSE
Current Station
Stations météorologiques personnelles
Location: Monroe, NE
Altitude: 1525 ft
Stations météo à proximité

Alt. 1525 ft 41.47 °N, 97.62 °W | Updated 1 minute ago

Partiellement nuageux
Partiellement nuageux
71.1 ° F
Paraît 76 ° F
N
0.7
Vent Variable Vent de Sud
Gusts 4.5 mph

Aujourd'hui
Haut(e) -- | Bas -- ° F
--% Risque de précip.
Hier
Haut(e) -- | Bas -- ° F
Precip. -- pouce
6:03 AM 8:52 PM
Premier quartier, 53% visible
Pression 29.73 pouce
Visibilité 10.0 Miles terrestres
Nuages Nuages épars 6500 ft
Nuages épars 8000 ft
Nuageux 10000 ft
indice de chaleur 76 ° F
Point de rosée 56 ° F
Humidité 60%
Précipitations 0.00 pouce
Profondeur de la couche neigeuse Non disponible.
UV 0 sur 12
Pollen 3.40 sur 12
Qualité de l'air Non disponible.
Flu Activity No Activity
METAR KBVN 260115Z AUTO 17007KT 10SM SCT065 SCT080 BKN100 21/12 A2973 RMK AO2 LTG DSNT SE W AND NW T02120123

More Conditions Fewer Conditions

Pression 29.73 pouce
Visibilité 10.0 Miles terrestres
Nuages Nuages épars 6500 ft
Nuages épars 8000 ft
Nuageux 10000 ft
indice de chaleur 76 ° F
Point de rosée 56 ° F
Humidité 60%
Précipitations 0.00 pouce
Profondeur de la couche neigeuse Non disponible.
UV 0 sur 12
Pollen 3.40 sur 12
Qualité de l'air Non disponible.
Flu Activity No Activity
METAR KBVN 260115Z AUTO 17007KT 10SM SCT065 SCT080 BKN100 21/12 A2973 RMK AO2 LTG DSNT SE W AND NW T02120123

More Conditions Fewer Conditions

10-Day Weather Forecast

Almanac

Astronomie

May. 25, 2015 Lever Coucher
Temps réel
Crépuscule civil
Crépuscule nautique
Crépuscule astronomique
Lune
Durée de lumière visible
Longueur du jour
Tomorrow will be .
, % of the Moon is Illuminated

Extrêmes aujourd'hui

State Highs State Lows

Community

WunderPhotos

Upload Photos

1,824,214 Photos téléchargées !

WunderBlogs® & News

Nearby

Qualité de l'air

  Qualité de l'air Indice de la qualité de l'air Polluant
Not available.

Épaisseur de neige

Station Depth Altitude

Activité sismique

Ville Distance Mag. Time & Date
Minimum magnitude displayed is 2.5.

Températures des eaux côtières

Lieu Température

Stations

Stations météo à proximité

Emplacement de la station Température Refroidissement éolien Point de rosée Humidité Vent Precip. Alt. Mise à jour Type